Time;durP1;ratioP1;P1;durP2;ratioP2;P2;SDS_P1;SDS_P2;PMS_P1;PMS_P2;Temp;Humidity;BMP_temperature;BMP_pressure;BME280_temperature;BME280_humidity;BME280_pressure;Samples;Min_cycle;Max_cycle;Signal;HPM_P1;HPM_P2
2021/09/26 00:02:26;;;;;;;;;;;;;;;;;;;;;
2021/09/26 00:05:11;;;;;;;25.00;19.25;;;18.70;92.60;;;;;;5942720;23;20346;-85
2021/09/26 00:08:38;;;;;;;20.42;16.10;;;18.70;92.60;;;;;;6057828;23;20020;-86
2021/09/26 00:11:07;;;;;;;18.20;15.23;;;18.70;92.30;;;;;;6159615;23;20041;-86
2021/09/26 00:13:56;;;;;;;19.95;16.08;;;18.70;92.60;;;;;;6158679;23;20017;-85
2021/09/26 00:16:28;;;;;;;18.15;16.05;;;18.70;92.30;;;;;;6013730;23;20452;-86
2021/09/26 00:18:56;;;;;;;17.95;15.15;;;18.70;92.50;;;;;;6146489;23;20017;-84
2021/09/26 00:25:20;;;;;;;27.60;21.20;;;18.70;92.30;;;;;;6037707;23;20022;-86
2021/09/26 00:36:40;;;;;;;;;;;;;;;;;;;;;
2021/09/26 00:43:19;;;;;;;19.63;16.23;;;18.50;92.30;;;;;;5981190;24;20026;-86
2021/09/26 00:46:15;;;;;;;17.98;15.30;;;18.50;92.70;;;;;;5957021;24;20032;-86
2021/09/26 01:00:27;;;;;;;18.17;15.02;;;18.60;92.50;;;;;;6185118;23;20016;-85
2021/09/26 01:07:31;;;;;;;18.45;15.25;;;18.50;92.30;;;;;;6093892;23;20173;-86
2021/09/26 01:10:49;;;;;;;18.73;15.57;;;18.40;92.40;;;;;;6078313;23;20019;-86
2021/09/26 01:53:35;;;;;;;19.92;16.38;;;18.30;92.70;;;;;;6181057;23;20021;-86
2021/09/26 01:56:19;;;;;;;19.45;16.17;;;18.30;92.50;;;;;;6159302;23;20017;-85
2021/09/26 01:59:16;;;;;;;20.33;17.50;;;18.30;92.70;;;;;;6158227;23;20469;-86
2021/09/26 02:02:19;;;;;;;19.02;16.10;;;18.30;92.80;;;;;;6158383;23;20028;-85
2021/09/26 02:04:59;;;;;;;19.25;16.02;;;18.30;92.50;;;;;;6116506;23;20024;-85
2021/09/26 02:07:52;;;;;;;17.52;15.55;;;18.30;92.70;;;;;;6160403;23;20017;-86
2021/09/26 02:10:21;;;;;;;18.33;16.35;;;18.30;92.70;;;;;;6161109;23;20013;-86
2021/09/26 02:12:50;;;;;;;17.95;15.57;;;18.30;92.80;;;;;;6159718;23;20021;-86
2021/09/26 02:15:41;;;;;;;22.23;15.68;;;18.30;92.80;;;;;;6160934;23;20032;-86
2021/09/26 02:18:08;;;;;;;20.98;17.88;;;18.30;92.80;;;;;;6160861;23;20055;-86
2021/09/26 02:20:37;;;;;;;20.23;17.17;;;18.20;92.90;;;;;;6159757;23;20025;-86
2021/09/26 02:23:04;;;;;;;19.38;16.75;;;18.20;92.90;;;;;;6160533;23;20509;-86
2021/09/26 02:25:42;;;;;;;20.38;17.05;;;18.20;92.90;;;;;;6159546;23;20021;-87
2021/09/26 02:28:08;;;;;;;18.90;16.25;;;18.20;92.60;;;;;;6159790;23;20013;-86
2021/09/26 02:30:44;;;;;;;21.35;17.55;;;18.20;92.60;;;;;;6160465;23;20013;-87
2021/09/26 02:33:25;;;;;;;19.77;17.67;;;18.20;93.00;;;;;;6159710;23;20053;-87
2021/09/26 02:35:57;;;;;;;18.92;15.48;;;18.10;92.60;;;;;;6160942;23;20013;-87
2021/09/26 02:38:23;;;;;;;19.38;16.85;;;18.10;92.60;;;;;;6160608;23;20532;-86
2021/09/26 03:13:17;;;;;;;21.80;18.00;;;17.80;93.10;;;;;;5953929;24;20023;-86
2021/09/26 03:19:24;;;;;;;21.42;17.92;;;17.70;93.10;;;;;;5903152;24;20032;-86
2021/09/26 03:21:50;;;;;;;20.10;17.92;;;17.70;93.40;;;;;;5986540;23;20016;-86
2021/09/26 03:24:24;;;;;;;20.58;17.88;;;17.70;93.30;;;;;;5985272;23;20564;-88
2021/09/26 03:26:50;;;;;;;21.58;18.67;;;17.70;93.30;;;;;;5986740;23;20031;-86
2021/09/26 03:29:20;;;;;;;21.20;17.67;;;17.70;93.40;;;;;;5991011;23;20098;-86
2021/09/26 03:31:51;;;;;;;23.10;19.58;;;17.70;93.30;;;;;;6013943;23;20155;-86
2021/09/26 03:34:22;;;;;;;20.85;18.27;;;17.70;93.40;;;;;;6014073;23;20019;-86
2021/09/26 03:36:54;;;;;;;20.90;18.60;;;17.60;93.40;;;;;;6012940;23;20015;-86
2021/09/26 03:39:22;;;;;;;21.98;19.33;;;17.60;93.40;;;;;;6013518;23;20102;-86
2021/09/26 03:41:57;;;;;;;23.52;19.75;;;17.60;93.50;;;;;;6014154;23;20015;-86
2021/09/26 03:44:35;;;;;;;25.88;19.70;;;17.50;93.40;;;;;;6094279;23;20333;-86
2021/09/26 03:47:03;;;;;;;26.17;19.67;;;17.50;93.40;;;;;;6100147;23;20096;-86
2021/09/26 03:49:35;;;;;;;23.02;19.05;;;17.50;93.70;;;;;;6140200;23;20013;-86
2021/09/26 03:52:02;;;;;;;22.67;18.75;;;17.50;93.50;;;;;;6159090;23;20048;-84
2021/09/26 03:54:27;;;;;;;24.27;20.48;;;17.50;93.30;;;;;;6159445;23;20013;-83
2021/09/26 03:56:53;;;;;;;22.05;19.58;;;17.50;93.50;;;;;;6159920;23;20052;-83
2021/09/26 03:59:19;;;;;;;22.58;20.17;;;17.40;93.50;;;;;;6159076;23;20013;-83
2021/09/26 04:01:45;;;;;;;24.63;20.15;;;17.40;93.50;;;;;;6159644;23;20024;-82
2021/09/26 04:04:11;;;;;;;24.10;20.17;;;17.40;93.50;;;;;;6159566;23;20017;-83
2021/09/26 04:06:37;;;;;;;23.55;19.95;;;17.40;93.60;;;;;;6158572;23;20021;-83
2021/09/26 04:09:04;;;;;;;22.10;19.33;;;17.40;93.60;;;;;;6160122;23;20021;-83
2021/09/26 04:11:29;;;;;;;23.27;19.63;;;17.40;93.60;;;;;;6158335;23;20017;-83
2021/09/26 04:13:55;;;;;;;23.60;19.77;;;17.30;93.50;;;;;;6160044;23;20013;-84
2021/09/26 04:16:21;;;;;;;22.95;19.17;;;17.30;93.90;;;;;;6159922;23;20319;-83
2021/09/26 04:18:46;;;;;;;24.38;19.95;;;17.30;93.40;;;;;;6158908;23;20014;-84
2021/09/26 04:21:16;;;;;;;22.30;19.45;;;17.30;93.40;;;;;;6159809;23;20513;-83
2021/09/26 04:23:42;;;;;;;22.67;19.40;;;17.30;93.50;;;;;;6159621;23;20462;-84
2021/09/26 04:26:08;;;;;;;22.35;19.65;;;17.30;93.50;;;;;;6159139;23;20445;-83
2021/09/26 04:28:33;;;;;;;25.70;20.77;;;17.20;93.50;;;;;;6159218;23;20028;-83
2021/09/26 04:30:59;;;;;;;22.85;19.80;;;17.20;93.40;;;;;;6160326;23;20378;-83
2021/09/26 04:33:24;;;;;;;22.13;18.75;;;17.20;93.50;;;;;;6158346;23;20017;-83
2021/09/26 04:35:50;;;;;;;21.20;18.23;;;17.20;93.30;;;;;;6159884;23;20104;-84
2021/09/26 04:38:15;;;;;;;23.70;20.90;;;17.20;93.20;;;;;;6186090;23;20028;-83
2021/09/26 04:40:41;;;;;;;22.35;19.60;;;17.10;93.20;;;;;;6184975;23;20017;-83
2021/09/26 04:43:07;;;;;;;20.88;18.65;;;17.10;93.30;;;;;;6159376;23;20024;-84
2021/09/26 04:45:33;;;;;;;22.70;19.40;;;17.10;93.30;;;;;;6185873;23;20338;-83
2021/09/26 04:47:59;;;;;;;21.27;18.70;;;17.10;93.30;;;;;;6158511;23;20024;-83
2021/09/26 04:50:25;;;;;;;21.63;19.30;;;17.00;93.20;;;;;;6159635;23;20059;-84
2021/09/26 04:52:50;;;;;;;21.67;18.70;;;17.00;93.30;;;;;;6158766;23;20025;-83
2021/09/26 04:55:16;;;;;;;22.73;20.30;;;17.00;93.10;;;;;;6158537;23;20088;-84
2021/09/26 04:57:41;;;;;;;22.73;20.33;;;17.00;93.40;;;;;;6159270;23;20044;-83
2021/09/26 05:00:08;;;;;;;22.83;20.30;;;17.00;93.50;;;;;;6158923;23;20104;-82
2021/09/26 05:02:34;;;;;;;22.20;18.88;;;17.00;93.60;;;;;;6158070;23;20009;-83
2021/09/26 05:05:00;;;;;;;23.50;19.23;;;16.90;93.70;;;;;;6159364;23;20101;-83
2021/09/26 05:07:28;;;;;;;27.63;22.88;;;16.90;93.50;;;;;;6159261;23;20032;-83
2021/09/26 05:09:56;;;;;;;23.48;19.45;;;16.90;93.60;;;;;;6158318;23;20382;-83
2021/09/26 05:12:21;;;;;;;22.25;19.33;;;16.90;93.60;;;;;;6159083;23;20027;-83
2021/09/26 05:14:48;;;;;;;23.25;19.65;;;16.80;93.70;;;;;;6158044;23;20013;-83
2021/09/26 05:17:15;;;;;;;21.80;19.02;;;16.80;93.80;;;;;;6159376;23;20021;-83
2021/09/26 05:19:45;;;;;;;22.27;18.77;;;16.80;93.70;;;;;;6158920;23;20013;-83
2021/09/26 05:22:11;;;;;;;21.30;18.52;;;16.80;93.70;;;;;;6158192;23;20028;-83
2021/09/26 05:24:36;;;;;;;22.75;19.30;;;16.80;93.80;;;;;;6185570;23;20337;-82
2021/09/26 05:27:03;;;;;;;21.52;19.33;;;16.70;93.90;;;;;;6159252;23;20020;-83
2021/09/26 05:29:29;;;;;;;21.20;18.88;;;16.70;93.80;;;;;;6158208;23;20013;-83
2021/09/26 05:31:54;;;;;;;21.15;18.02;;;16.70;93.70;;;;;;6159058;23;20353;-83
2021/09/26 05:34:20;;;;;;;20.38;18.25;;;16.70;93.80;;;;;;6159266;23;20063;-83
2021/09/26 05:36:45;;;;;;;21.85;18.48;;;16.70;93.80;;;;;;6158228;23;20315;-83
2021/09/26 05:39:11;;;;;;;23.15;19.60;;;16.60;94.00;;;;;;6159678;23;20039;-85
2021/09/26 05:41:36;;;;;;;21.10;18.80;;;16.60;94.00;;;;;;6161332;23;20020;-82
2021/09/26 05:44:02;;;;;;;20.10;17.95;;;16.60;94.00;;;;;;6160911;23;20046;-87
2021/09/26 05:46:28;;;;;;;21.30;18.65;;;16.60;94.00;;;;;;6161467;23;20099;-87
2021/09/26 05:48:54;;;;;;;20.63;18.30;;;16.60;93.90;;;;;;6161754;23;20013;-88
2021/09/26 05:51:19;;;;;;;21.75;19.10;;;16.50;93.80;;;;;;6160948;23;20024;-87
2021/09/26 05:53:45;;;;;;;20.17;17.77;;;16.50;94.00;;;;;;6161409;23;20144;-87
2021/09/26 05:56:11;;;;;;;22.75;19.13;;;16.50;94.10;;;;;;6161452;23;20017;-82
2021/09/26 05:58:36;;;;;;;20.17;17.90;;;16.50;94.10;;;;;;6160026;23;20417;-85
2021/09/26 06:01:02;;;;;;;20.15;17.98;;;16.50;94.20;;;;;;6161473;23;20013;-84
2021/09/26 06:03:28;;;;;;;20.95;18.67;;;16.50;94.20;;;;;;6161093;23;20021;-84
2021/09/26 06:05:53;;;;;;;19.73;17.60;;;16.40;94.20;;;;;;6159643;23;20017;-82
2021/09/26 06:08:19;;;;;;;19.88;17.77;;;16.40;94.30;;;;;;6187688;23;20144;-82
2021/09/26 06:10:44;;;;;;;20.13;17.50;;;16.40;94.40;;;;;;6186593;23;20025;-82
2021/09/26 06:13:13;;;;;;;18.85;16.52;;;16.40;94.30;;;;;;6160273;23;20032;-83
2021/09/26 06:15:38;;;;;;;20.65;17.42;;;16.40;94.20;;;;;;6159859;23;20099;-83
2021/09/26 06:18:04;;;;;;;21.40;17.10;;;16.40;94.20;;;;;;6160273;23;20456;-82
2021/09/26 06:20:30;;;;;;;20.33;17.55;;;16.40;94.30;;;;;;6160362;23;20395;-82
2021/09/26 06:22:55;;;;;;;19.90;17.73;;;16.40;94.20;;;;;;6160455;23;20481;-83
2021/09/26 06:25:21;;;;;;;18.95;16.95;;;16.30;94.30;;;;;;6160219;23;20071;-82
2021/09/26 06:27:46;;;;;;;20.05;17.23;;;16.30;94.30;;;;;;6160847;23;20013;-81
2021/09/26 06:30:12;;;;;;;20.20;17.30;;;16.30;94.20;;;;;;6161090;23;20087;-82
2021/09/26 06:32:38;;;;;;;19.55;17.02;;;16.30;94.20;;;;;;6159941;23;20434;-83
2021/09/26 06:35:06;;;;;;;19.38;17.00;;;16.30;94.30;;;;;;6160642;23;20023;-83
2021/09/26 06:37:32;;;;;;;21.33;17.60;;;16.30;94.40;;;;;;6160708;23;20378;-83
2021/09/26 06:39:57;;;;;;;18.70;16.58;;;16.30;94.40;;;;;;6160008;23;20013;-82
2021/09/26 06:42:23;;;;;;;18.38;16.48;;;16.30;94.50;;;;;;6187401;23;20099;-84
2021/09/26 06:44:49;;;;;;;17.52;15.40;;;16.20;94.50;;;;;;6160820;23;20017;-83
2021/09/26 06:47:16;;;;;;;18.65;16.67;;;16.20;94.40;;;;;;6159783;23;20071;-84
2021/09/26 06:49:42;;;;;;;17.23;15.25;;;16.30;94.50;;;;;;6160271;23;20019;-82
2021/09/26 06:52:12;;;;;;;17.67;15.77;;;16.20;94.30;;;;;;6160106;23;20017;-82
2021/09/26 06:54:38;;;;;;;17.42;15.27;;;16.20;94.40;;;;;;6158633;23;20013;-82
2021/09/26 06:57:06;;;;;;;20.58;17.10;;;16.20;94.30;;;;;;6160644;23;20124;-81
2021/09/26 06:59:32;;;;;;;18.83;15.60;;;16.20;94.40;;;;;;6185936;23;20023;-82
2021/09/26 07:01:58;;;;;;;24.70;17.95;;;16.30;94.40;;;;;;6158649;23;20056;-83
2021/09/26 07:04:24;;;;;;;19.00;15.60;;;16.30;94.60;;;;;;6159671;23;20017;-82
2021/09/26 07:06:51;;;;;;;16.95;14.68;;;16.30;94.50;;;;;;6159929;23;20083;-83
2021/09/26 07:09:17;;;;;;;18.92;15.45;;;16.30;94.10;;;;;;6158859;23;20021;-81
2021/09/26 07:11:43;;;;;;;20.58;16.13;;;16.30;94.20;;;;;;6159018;23;20051;-81
2021/09/26 07:14:09;;;;;;;21.00;16.15;;;16.30;94.60;;;;;;6158850;23;20021;-81
2021/09/26 07:16:34;;;;;;;18.83;15.27;;;16.30;94.70;;;;;;6158345;23;20009;-81
2021/09/26 07:19:00;;;;;;;19.85;15.82;;;16.40;94.70;;;;;;6159120;23;20016;-81
2021/09/26 07:21:25;;;;;;;17.30;14.43;;;16.40;94.80;;;;;;6158134;23;20454;-81
2021/09/26 07:23:51;;;;;;;20.60;15.27;;;16.50;94.60;;;;;;6159305;23;20032;-81
2021/09/26 07:26:17;;;;;;;16.83;14.45;;;16.50;94.60;;;;;;6159055;23;20047;-81
2021/09/26 07:28:42;;;;;;;17.42;14.70;;;16.50;94.60;;;;;;6159317;23;20060;-81
2021/09/26 07:31:08;;;;;;;18.10;14.52;;;16.50;94.60;;;;;;6158664;23;20334;-81
2021/09/26 07:33:34;;;;;;;19.00;15.38;;;16.60;94.60;;;;;;6159224;23;20418;-81
2021/09/26 07:35:59;;;;;;;18.00;13.57;;;16.60;94.60;;;;;;6158264;23;20370;-81
2021/09/26 07:38:25;;;;;;;16.02;14.10;;;16.70;94.50;;;;;;6159311;23;20024;-81
2021/09/26 07:40:51;;;;;;;17.00;13.98;;;16.70;94.50;;;;;;6159390;23;20013;-80
2021/09/26 07:43:17;;;;;;;16.00;14.13;;;16.80;94.50;;;;;;6158188;23;20067;-81
2021/09/26 07:45:42;;;;;;;16.30;13.75;;;16.90;94.40;;;;;;6158958;23;20039;-83
2021/09/26 07:48:08;;;;;;;17.33;13.63;;;16.90;94.40;;;;;;6160157;23;20021;-82
2021/09/26 07:50:33;;;;;;;18.17;13.77;;;17.00;94.30;;;;;;6158167;23;20442;-82
2021/09/26 07:52:59;;;;;;;16.50;14.07;;;17.10;94.20;;;;;;6159664;23;20021;-80
2021/09/26 07:55:25;;;;;;;16.38;13.98;;;17.10;94.10;;;;;;6158681;23;20013;-81
2021/09/26 07:57:51;;;;;;;14.65;12.88;;;17.20;94.00;;;;;;6158222;23;20021;-81
2021/09/26 08:00:18;;;;;;;17.38;12.75;;;17.20;94.00;;;;;;6159002;23;20017;-82
2021/09/26 08:02:43;;;;;;;16.15;13.25;;;17.30;94.00;;;;;;6186577;23;20040;-81
2021/09/26 08:05:10;;;;;;;17.35;13.15;;;17.40;93.80;;;;;;6185224;23;20017;-81
2021/09/26 08:07:37;;;;;;;17.67;13.80;;;17.40;93.60;;;;;;6158279;23;20017;-81
2021/09/26 08:10:06;;;;;;;17.95;12.70;;;17.50;93.60;;;;;;6158862;23;20017;-81
2021/09/26 08:12:31;;;;;;;13.85;11.68;;;17.50;93.50;;;;;;6157540;23;20426;-81
2021/09/26 08:14:57;;;;;;;15.48;12.90;;;17.60;93.60;;;;;;6159400;23;20032;-81
2021/09/26 08:17:23;;;;;;;17.73;13.13;;;17.60;93.60;;;;;;6158753;23;20021;-81
2021/09/26 08:19:49;;;;;;;15.65;12.70;;;17.70;93.30;;;;;;6158155;23;20059;-82
2021/09/26 08:22:15;;;;;;;14.80;12.07;;;17.80;93.10;;;;;;6159860;23;20025;-82
2021/09/26 08:24:41;;;;;;;15.50;12.90;;;17.80;93.20;;;;;;6158849;23;20140;-82
2021/09/26 08:27:07;;;;;;;14.50;11.85;;;17.80;93.20;;;;;;6159784;23;20410;-81
2021/09/26 08:29:32;;;;;;;16.08;13.00;;;17.80;93.30;;;;;;6158925;23;20009;-82
2021/09/26 08:31:58;;;;;;;16.52;13.65;;;17.80;93.20;;;;;;6158397;23;20017;-81
2021/09/26 08:34:24;;;;;;;17.27;12.45;;;17.90;93.10;;;;;;6158985;23;20484;-81
2021/09/26 08:36:50;;;;;;;15.07;12.30;;;18.00;93.00;;;;;;6159157;23;20032;-82
2021/09/26 08:39:16;;;;;;;15.25;13.25;;;18.00;93.10;;;;;;6157913;23;20060;-81
2021/09/26 08:42:02;;;;;;;19.98;13.50;;;18.00;92.90;;;;;;6154487;23;20017;-86
2021/09/26 08:48:21;;;;;;;;;;;18.10;92.60;;;;;;6144366;23;20075;-82
2021/09/26 08:51:05;;;;;;;16.48;13.38;;;18.10;92.50;;;;;;6188209;23;19919;-82
2021/09/26 08:53:33;;;;;;;17.40;13.18;;;18.20;92.60;;;;;;6188371;23;20063;-82
2021/09/26 08:56:15;;;;;;;16.17;13.38;;;18.20;92.70;;;;;;6189883;23;20091;-82
2021/09/26 08:58:44;;;;;;;19.45;14.00;;;18.20;92.50;;;;;;6189099;23;20009;-81
2021/09/26 09:01:10;;;;;;;16.90;13.15;;;18.30;92.30;;;;;;6187048;23;20021;-81
2021/09/26 09:03:36;;;;;;;17.08;13.50;;;18.30;92.30;;;;;;6188300;23;20100;-82
2021/09/26 09:06:02;;;;;;;16.70;13.32;;;18.30;92.20;;;;;;6189277;23;20023;-82
2021/09/26 09:08:28;;;;;;;20.35;13.55;;;18.30;92.40;;;;;;6188157;23;20020;-83
2021/09/26 09:10:56;;;;;;;19.67;14.77;;;18.30;92.20;;;;;;6189565;23;20356;-82
2021/09/26 09:13:38;;;;;;;18.95;13.90;;;18.30;92.10;;;;;;6189902;23;20016;-82
2021/09/26 09:16:09;;;;;;;16.48;13.18;;;18.40;92.10;;;;;;6190675;23;20079;-82
2021/09/26 09:18:38;;;;;;;17.05;13.50;;;18.30;92.30;;;;;;6190903;23;20016;-82
2021/09/26 09:21:19;;;;;;;16.48;13.43;;;18.30;92.10;;;;;;6190649;23;20013;-82
2021/09/26 09:23:45;;;;;;;18.88;13.65;;;18.40;92.10;;;;;;6191090;23;20043;-83
2021/09/26 09:26:10;;;;;;;18.48;13.82;;;18.40;92.20;;;;;;6191166;23;20012;-83
2021/09/26 09:28:39;;;;;;;20.98;13.98;;;18.40;92.40;;;;;;6190372;23;20318;-83
2021/09/26 09:31:07;;;;;;;17.50;14.32;;;18.40;92.20;;;;;;6191294;23;20016;-82
2021/09/26 09:33:41;;;;;;;15.63;13.20;;;18.40;92.40;;;;;;6191358;23;20013;-82
2021/09/26 09:36:21;;;;;;;15.75;12.40;;;18.40;92.20;;;;;;6190693;23;20056;-82
2021/09/26 09:38:54;;;;;;;15.70;12.50;;;18.30;92.50;;;;;;6190584;23;20020;-82
2021/09/26 09:41:46;;;;;;;17.48;13.75;;;18.40;92.50;;;;;;6191257;23;20097;-83
2021/09/26 09:44:14;;;;;;;15.70;13.05;;;18.40;92.20;;;;;;6190559;23;20075;-82
2021/09/26 09:46:46;;;;;;;16.33;13.65;;;18.40;92.40;;;;;;6190606;23;20357;-83
2021/09/26 09:49:13;;;;;;;17.02;13.80;;;18.50;92.40;;;;;;6190338;23;20379;-83
2021/09/26 09:52:01;;;;;;;16.05;13.20;;;18.50;92.20;;;;;;6190611;23;20345;-82
2021/09/26 09:54:35;;;;;;;20.55;13.07;;;18.50;92.50;;;;;;6190622;23;20131;-82
2021/09/26 09:57:15;;;;;;;16.02;12.75;;;18.50;92.40;;;;;;6190163;23;20023;-83
2021/09/26 09:59:44;;;;;;;19.27;13.32;;;18.60;92.20;;;;;;6191205;23;20013;-82
2021/09/26 10:02:10;;;;;;;18.13;12.98;;;18.70;92.20;;;;;;6191269;23;20023;-83
2021/09/26 10:04:45;;;;;;;16.90;13.60;;;18.70;91.90;;;;;;6189611;23;20465;-83
2021/09/26 10:07:16;;;;;;;17.95;13.32;;;18.70;92.00;;;;;;6190104;23;20082;-82
2021/09/26 10:09:43;;;;;;;18.25;12.50;;;18.70;91.90;;;;;;6190956;23;20063;-82
2021/09/26 10:12:25;;;;;;;17.30;13.30;;;18.80;92.00;;;;;;6189785;23;20345;-83
2021/09/26 10:14:53;;;;;;;17.75;13.05;;;18.80;91.90;;;;;;6191166;23;20066;-83
2021/09/26 10:17:20;;;;;;;18.25;12.52;;;18.90;91.90;;;;;;6196555;23;20024;-86
2021/09/26 10:19:47;;;;;;;19.15;12.73;;;19.00;91.90;;;;;;6200660;23;20016;-86
2021/09/26 10:22:16;;;;;;;14.50;12.32;;;19.10;91.70;;;;;;6197310;23;20048;-83
2021/09/26 10:24:47;;;;;;;19.17;12.23;;;19.20;92.00;;;;;;6190219;23;20012;-84
2021/09/26 10:27:14;;;;;;;16.15;12.43;;;19.30;91.50;;;;;;6193054;23;20074;-83
2021/09/26 10:29:41;;;;;;;16.58;12.85;;;19.30;91.50;;;;;;6191441;23;20017;-82
2021/09/26 10:32:11;;;;;;;15.07;12.48;;;19.40;91.40;;;;;;6188555;23;20207;-82
2021/09/26 10:34:38;;;;;;;17.92;12.43;;;19.50;91.40;;;;;;6189379;23;20017;-83
2021/09/26 10:37:08;;;;;;;16.67;12.82;;;19.50;91.30;;;;;;6189435;23;20310;-82
2021/09/26 10:39:36;;;;;;;16.25;12.23;;;19.60;91.20;;;;;;6187606;23;20052;-83
2021/09/26 10:42:12;;;;;;;17.33;12.10;;;19.70;91.00;;;;;;6189600;23;20008;-83
2021/09/26 10:44:48;;;;;;;16.40;12.25;;;19.80;91.20;;;;;;6189856;23;20464;-82
2021/09/26 10:47:22;;;;;;;19.13;12.57;;;19.80;91.20;;;;;;6188882;23;20031;-82
2021/09/26 10:50:14;;;;;;;17.88;11.82;;;19.80;91.10;;;;;;6188814;23;20024;-83
2021/09/26 10:52:50;;;;;;;17.55;11.43;;;19.90;91.00;;;;;;6188516;23;20492;-86
2021/09/26 10:55:34;;;;;;;17.77;11.60;;;20.00;90.90;;;;;;6188767;23;20012;-87
2021/09/26 10:58:05;;;;;;;16.65;11.95;;;20.00;90.80;;;;;;6188460;23;20341;-86
2021/09/26 11:00:35;;;;;;;16.75;11.85;;;20.10;90.90;;;;;;6187374;23;20023;-83
2021/09/26 11:03:15;;;;;;;19.58;12.25;;;20.10;91.20;;;;;;6188782;23;20449;-84
2021/09/26 11:05:49;;;;;;;15.30;11.95;;;20.10;90.80;;;;;;6187618;23;20012;-86
2021/09/26 11:08:23;;;;;;;17.67;12.30;;;20.20;90.80;;;;;;6187251;23;20020;-83
2021/09/26 11:10:57;;;;;;;16.33;13.07;;;20.20;90.70;;;;;;6188745;23;20012;-87
2021/09/26 11:13:29;;;;;;;16.35;12.35;;;20.20;90.60;;;;;;6187767;23;20017;-85
2021/09/26 11:16:17;;;;;;;18.38;13.02;;;20.30;90.80;;;;;;6189031;23;20449;-84
2021/09/26 11:19:10;;;;;;;17.45;12.02;;;20.30;90.70;;;;;;6188298;23;20016;-84
2021/09/26 11:21:36;;;;;;;18.55;12.73;;;20.40;90.70;;;;;;6187561;23;20460;-86
2021/09/26 11:24:18;;;;;;;16.88;12.43;;;20.40;90.90;;;;;;6188502;23;20020;-85
2021/09/26 11:26:59;;;;;;;16.90;11.80;;;20.50;90.80;;;;;;6188034;23;20020;-89
2021/09/26 11:29:48;;;;;;;18.27;12.35;;;20.50;90.50;;;;;;6187384;23;20051;-85
2021/09/26 11:32:23;;;;;;;15.57;11.38;;;20.50;90.30;;;;;;6164631;23;20017;-84
2021/09/26 11:34:52;;;;;;;17.05;12.52;;;20.60;90.30;;;;;;6187665;23;20061;-84
2021/09/26 11:37:38;;;;;;;18.27;12.60;;;20.60;90.20;;;;;;6187236;23;20021;-85
2021/09/26 11:40:16;;;;;;;14.85;11.90;;;20.70;90.20;;;;;;6187304;23;20024;-83
2021/09/26 11:42:55;;;;;;;20.95;12.88;;;20.70;90.10;;;;;;6187097;23;20021;-84
2021/09/26 11:45:28;;;;;;;15.35;12.23;;;20.70;90.10;;;;;;6188276;23;20017;-85
2021/09/26 11:48:08;;;;;;;18.10;12.35;;;20.80;90.30;;;;;;6188773;23;20020;-81
2021/09/26 11:50:35;;;;;;;17.02;12.50;;;20.90;89.90;;;;;;6186722;23;20342;-83
2021/09/26 11:53:01;;;;;;;15.15;11.38;;;20.90;89.80;;;;;;6187973;23;20016;-86
2021/09/26 11:55:32;;;;;;;15.88;12.38;;;21.00;90.10;;;;;;6187847;23;20052;-85
2021/09/26 11:57:59;;;;;;;15.95;12.00;;;21.00;89.70;;;;;;6187955;23;20020;-84
2021/09/26 12:00:34;;;;;;;17.02;12.25;;;21.00;90.00;;;;;;6187594;23;20048;-84
2021/09/26 12:03:24;;;;;;;18.25;12.07;;;21.10;89.90;;;;;;6214073;23;20096;-83
2021/09/26 12:05:51;;;;;;;17.33;12.02;;;21.10;89.80;;;;;;6188635;23;20343;-84
2021/09/26 12:08:17;;;;;;;15.95;12.30;;;21.20;90.10;;;;;;6187996;23;20016;-84
2021/09/26 12:10:46;;;;;;;17.88;12.15;;;21.20;90.10;;;;;;6186869;23;20066;-84
2021/09/26 12:13:21;;;;;;;16.75;12.15;;;21.20;89.90;;;;;;6188103;23;20091;-83
2021/09/26 12:15:47;;;;;;;17.35;12.90;;;21.20;89.60;;;;;;6187458;23;20016;-84
2021/09/26 12:18:18;;;;;;;14.23;11.82;;;21.20;89.40;;;;;;6186976;23;20373;-83
2021/09/26 12:20:44;;;;;;;15.73;11.63;;;21.20;89.90;;;;;;6187639;23;20420;-83
2021/09/26 12:23:22;;;;;;;14.77;11.48;;;21.30;90.20;;;;;;6187650;23;20048;-84
2021/09/26 12:26:00;;;;;;;17.98;12.02;;;21.30;90.20;;;;;;6186659;23;20020;-84
2021/09/26 12:28:26;;;;;;;16.77;12.65;;;21.30;90.00;;;;;;6187431;23;20092;-86
2021/09/26 12:30:55;;;;;;;15.63;12.52;;;21.30;90.00;;;;;;6186473;23;20051;-84
2021/09/26 12:33:32;;;;;;;16.15;11.95;;;21.30;89.70;;;;;;6188211;23;20055;-85
2021/09/26 12:36:07;;;;;;;17.27;12.40;;;21.30;89.90;;;;;;6186599;23;20493;-84
2021/09/26 12:38:48;;;;;;;16.80;12.18;;;21.40;89.70;;;;;;6186282;23;20452;-83
2021/09/26 12:41:31;;;;;;;14.57;11.40;;;21.50;90.00;;;;;;6187947;23;20023;-84
2021/09/26 12:43:59;;;;;;;15.88;10.70;;;21.50;89.50;;;;;;6189206;23;20020;-84
2021/09/26 12:46:29;;;;;;;15.48;11.57;;;21.50;89.60;;;;;;6187366;23;20342;-85
2021/09/26 12:48:55;;;;;;;13.23;10.80;;;21.60;89.60;;;;;;6188520;23;20021;-82
2021/09/26 12:51:28;;;;;;;13.40;9.77;;;21.60;89.30;;;;;;6188859;23;20071;-84
2021/09/26 12:53:56;;;;;;;12.88;9.80;;;21.70;89.10;;;;;;6188226;23;20445;-84
2021/09/26 12:56:38;;;;;;;11.10;8.95;;;21.70;88.80;;;;;;6188758;23;20016;-84
2021/09/26 12:59:27;;;;;;;11.60;9.00;;;21.80;88.50;;;;;;6188087;23;20032;-84
2021/09/26 13:01:58;;;;;;;11.50;8.80;;;21.70;88.30;;;;;;6188880;23;20017;-84
2021/09/26 13:04:24;;;;;;;13.80;9.30;;;21.80;88.10;;;;;;6188170;23;20088;-83
2021/09/26 13:06:53;;;;;;;12.60;9.10;;;21.90;87.90;;;;;;6187421;23;20063;-84
2021/09/26 13:09:20;;;;;;;12.20;9.07;;;21.90;88.00;;;;;;6188525;23;20449;-84
2021/09/26 13:11:48;;;;;;;13.30;8.98;;;22.00;87.80;;;;;;6187928;23;20333;-84
2021/09/26 13:14:34;;;;;;;13.45;8.50;;;22.00;87.40;;;;;;6187615;23;20048;-84
2021/09/26 13:17:00;;;;;;;10.18;8.05;;;22.10;86.80;;;;;;6188463;23;20392;-84
2021/09/26 13:19:34;;;;;;;11.23;8.32;;;22.20;86.50;;;;;;6188818;23;20017;-84
2021/09/26 13:22:05;;;;;;;11.70;8.18;;;22.20;86.00;;;;;;6187453;23;20066;-84
2021/09/26 13:25:28;;;;;;;12.77;7.32;;;22.30;85.30;;;;;;6150377;23;20045;-84
2021/09/26 13:28:27;;;;;;;11.40;8.50;;;22.30;85.10;;;;;;6120206;23;20021;-86
2021/09/26 13:42:15;;;;;;;10.48;7.85;;;22.50;85.40;;;;;;6007534;23;20075;-84
2021/09/26 14:00:20;;;;;;;11.45;8.85;;;22.60;84.60;;;;;;5902464;24;20470;-83
2021/09/26 14:52:52;;;;;;;12.63;8.57;;;23.10;83.40;;;;;;6185681;23;20019;-84
2021/09/26 14:55:33;;;;;;;13.25;9.15;;;23.10;82.90;;;;;;6158598;23;20434;-85
2021/09/26 14:57:59;;;;;;;12.10;8.18;;;23.10;83.40;;;;;;6159619;23;20021;-84
2021/09/26 15:00:25;;;;;;;9.57;6.78;;;23.20;84.10;;;;;;6158147;23;20076;-84
2021/09/26 15:02:51;;;;;;;9.18;7.63;;;23.20;85.80;;;;;;6159146;23;20024;-84
2021/09/26 15:05:21;;;;;;;9.10;6.88;;;23.20;86.30;;;;;;6160003;23;20021;-84
2021/09/26 15:07:47;;;;;;;8.63;7.30;;;23.20;86.70;;;;;;6158816;23;20017;-84
2021/09/26 15:10:15;;;;;;;9.13;7.03;;;23.30;87.30;;;;;;6159707;23;20056;-84
2021/09/26 15:12:42;;;;;;;10.65;8.27;;;23.40;88.60;;;;;;6158120;23;20017;-84
2021/09/26 15:15:12;;;;;;;9.63;7.95;;;23.40;86.60;;;;;;6159643;23;20454;-85
2021/09/26 15:17:38;;;;;;;10.07;7.93;;;23.40;86.30;;;;;;6158496;23;20023;-84
2021/09/26 15:20:05;;;;;;;9.95;7.25;;;23.40;86.60;;;;;;6159044;23;20044;-85
2021/09/26 15:22:31;;;;;;;8.13;7.00;;;23.40;87.20;;;;;;6158262;23;20378;-91
2021/09/26 15:24:56;;;;;;;11.80;8.77;;;23.40;88.10;;;;;;6159558;23;20025;-83
2021/09/26 15:27:22;;;;;;;9.95;7.28;;;23.40;86.80;;;;;;6157346;23;20021;-83
2021/09/26 15:29:47;;;;;;;8.13;6.80;;;23.40;87.70;;;;;;6158420;23;20376;-82
2021/09/26 15:32:13;;;;;;;8.82;6.78;;;23.50;88.70;;;;;;6158915;23;20025;-81
2021/09/26 15:34:39;;;;;;;9.07;6.72;;;23.50;89.10;;;;;;6157718;23;20128;-82
2021/09/26 15:37:05;;;;;;;8.63;7.28;;;23.50;89.30;;;;;;6158615;23;20021;-82
2021/09/26 15:39:31;;;;;;;8.50;6.85;;;23.50;89.60;;;;;;6157964;23;20013;-82
2021/09/26 15:41:56;;;;;;;8.05;6.75;;;23.50;89.80;;;;;;6155508;23;20025;-82
2021/09/26 15:44:22;;;;;;;8.80;7.00;;;23.50;89.80;;;;;;6158807;23;20072;-86
2021/09/26 15:46:48;;;;;;;9.98;7.30;;;23.60;90.00;;;;;;6158216;23;20028;-84
2021/09/26 15:49:13;;;;;;;9.00;6.93;;;23.60;89.80;;;;;;6158009;23;20020;-84
2021/09/26 15:51:40;;;;;;;8.13;6.85;;;23.60;89.90;;;;;;6158586;23;20437;-85
2021/09/26 15:54:06;;;;;;;8.35;6.65;;;23.60;89.80;;;;;;6158304;23;20023;-85
2021/09/26 15:56:32;;;;;;;7.63;6.28;;;23.60;89.90;;;;;;6156664;23;20021;-86
2021/09/26 15:58:58;;;;;;;8.43;6.65;;;23.60;89.90;;;;;;6158269;23;20047;-85